Palmer, Iowa
Current Conditions -  °F | °C
As of 3:15 PM on Thursday 20 Nov 2014 (Local Time) from KFOD Reporting Station
Clear Clear  
Wind Chill: 15°   Ceiling: Unl
Heat Index: 23°   Visibility: 10mi
Dew Point:   Wind: 7mph
Humidity: 54%   Direction: 320°NW
Pressure: 30.21"   Gusts: NA
Location:  42.63°N, 94.6°W
Report Text: KFOD 202115Z AUTO 32006KT 10SM CLR M05/M13 A3021 RMK AO1
Loading
Personal Weather Stations






























Interactive Weather Map New forecast layout! Learn more

10-Day Weather Forecast

Advertisements
Track Severe Weather on mobile